sensor_id;sensor_type;location;lat;lon;timestamp;P1;durP1;ratioP1;P2;durP2;ratioP2
41309;SDS011;27057;51.438;-0.010;2023-10-19T00:00:37;26.90;;;1.50;;
41309;SDS011;27057;51.438;-0.010;2023-10-19T00:03:11;10.20;;;2.55;;
41309;SDS011;27057;51.438;-0.010;2023-10-19T00:05:39;13.98;;;1.70;;
41309;SDS011;27057;51.438;-0.010;2023-10-19T00:08:08;17.45;;;2.85;;
41309;SDS011;27057;51.438;-0.010;2023-10-19T00:10:47;20.85;;;2.88;;
41309;SDS011;27057;51.438;-0.010;2023-10-19T00:13:38;19.60;;;2.35;;
41309;SDS011;27057;51.438;-0.010;2023-10-19T00:16:07;15.75;;;2.13;;
41309;SDS011;27057;51.438;-0.010;2023-10-19T00:18:40;28.05;;;2.90;;
41309;SDS011;27057;51.438;-0.010;2023-10-19T00:21:10;15.10;;;1.95;;
41309;SDS011;27057;51.438;-0.010;2023-10-19T00:23:49;21.23;;;2.47;;
41309;SDS011;27057;51.438;-0.010;2023-10-19T00:26:18;13.80;;;2.20;;
41309;SDS011;27057;51.438;-0.010;2023-10-19T00:28:55;21.83;;;2.22;;
41309;SDS011;27057;51.438;-0.010;2023-10-19T00:31:24;12.15;;;1.88;;
41309;SDS011;27057;51.438;-0.010;2023-10-19T00:33:56;20.88;;;2.10;;
41309;SDS011;27057;51.438;-0.010;2023-10-19T00:36:24;16.20;;;2.25;;
41309;SDS011;27057;51.438;-0.010;2023-10-19T00:38:53;20.92;;;3.92;;
41309;SDS011;27057;51.438;-0.010;2023-10-19T00:41:21;27.65;;;2.33;;
41309;SDS011;27057;51.438;-0.010;2023-10-19T00:43:57;28.00;;;2.83;;
41309;SDS011;27057;51.438;-0.010;2023-10-19T00:46:38;15.73;;;2.78;;
41309;SDS011;27057;51.438;-0.010;2023-10-19T00:49:11;17.55;;;2.10;;
41309;SDS011;27057;51.438;-0.010;2023-10-19T00:51:45;17.52;;;2.13;;
41309;SDS011;27057;51.438;-0.010;2023-10-19T00:54:39;23.73;;;2.63;;
41309;SDS011;27057;51.438;-0.010;2023-10-19T00:57:13;19.15;;;1.60;;
41309;SDS011;27057;51.438;-0.010;2023-10-19T00:59:46;21.55;;;2.38;;
41309;SDS011;27057;51.438;-0.010;2023-10-19T01:02:21;23.45;;;2.38;;
41309;SDS011;27057;51.438;-0.010;2023-10-19T01:04:55;21.17;;;2.35;;
41309;SDS011;27057;51.438;-0.010;2023-10-19T01:07:28;17.17;;;1.58;;
41309;SDS011;27057;51.438;-0.010;2023-10-19T01:09:58;23.05;;;2.33;;
41309;SDS011;27057;51.438;-0.010;2023-10-19T01:12:27;25.50;;;2.13;;
41309;SDS011;27057;51.438;-0.010;2023-10-19T01:17:41;18.67;;;2.85;;
41309;SDS011;27057;51.438;-0.010;2023-10-19T01:20:13;20.80;;;3.65;;
41309;SDS011;27057;51.438;-0.010;2023-10-19T01:22:48;18.25;;;2.53;;
41309;SDS011;27057;51.438;-0.010;2023-10-19T01:25:48;21.17;;;1.90;;
41309;SDS011;27057;51.438;-0.010;2023-10-19T01:28:28;30.10;;;2.20;;
41309;SDS011;27057;51.438;-0.010;2023-10-19T01:31:18;20.98;;;2.70;;
41309;SDS011;27057;51.438;-0.010;2023-10-19T01:33:59;31.27;;;2.45;;
41309;SDS011;27057;51.438;-0.010;2023-10-19T01:36:33;19.85;;;2.35;;
41309;SDS011;27057;51.438;-0.010;2023-10-19T01:39:09;21.13;;;2.08;;
41309;SDS011;27057;51.438;-0.010;2023-10-19T01:41:37;16.50;;;2.00;;
41309;SDS011;27057;51.438;-0.010;2023-10-19T01:44:08;18.27;;;1.83;;
41309;SDS011;27057;51.438;-0.010;2023-10-19T01:46:41;15.48;;;2.60;;
41309;SDS011;27057;51.438;-0.010;2023-10-19T01:49:13;22.50;;;2.35;;
41309;SDS011;27057;51.438;-0.010;2023-10-19T01:51:40;17.02;;;1.63;;
41309;SDS011;27057;51.438;-0.010;2023-10-19T01:54:10;6.40;;;1.40;;
41309;SDS011;27057;51.438;-0.010;2023-10-19T01:56:38;11.15;;;1.10;;
41309;SDS011;27057;51.438;-0.010;2023-10-19T01:59:09;12.40;;;1.80;;
41309;SDS011;27057;51.438;-0.010;2023-10-19T02:01:36;7.80;;;0.88;;
41309;SDS011;27057;51.438;-0.010;2023-10-19T02:04:05;9.75;;;1.52;;
41309;SDS011;27057;51.438;-0.010;2023-10-19T02:06:36;7.40;;;1.45;;
41309;SDS011;27057;51.438;-0.010;2023-10-19T02:09:05;5.57;;;0.95;;
41309;SDS011;27057;51.438;-0.010;2023-10-19T02:11:55;11.07;;;1.40;;
41309;SDS011;27057;51.438;-0.010;2023-10-19T02:14:25;9.07;;;1.63;;
41309;SDS011;27057;51.438;-0.010;2023-10-19T02:16:56;8.75;;;1.73;;
41309;SDS011;27057;51.438;-0.010;2023-10-19T02:19:27;15.32;;;2.10;;
41309;SDS011;27057;51.438;-0.010;2023-10-19T02:21:59;13.23;;;1.70;;
41309;SDS011;27057;51.438;-0.010;2023-10-19T02:24:35;12.65;;;1.40;;
41309;SDS011;27057;51.438;-0.010;2023-10-19T02:27:03;7.35;;;1.65;;
41309;SDS011;27057;51.438;-0.010;2023-10-19T02:29:33;8.50;;;1.50;;
41309;SDS011;27057;51.438;-0.010;2023-10-19T02:32:03;11.40;;;1.50;;
41309;SDS011;27057;51.438;-0.010;2023-10-19T02:34:31;17.00;;;2.00;;
41309;SDS011;27057;51.438;-0.010;2023-10-19T02:36:58;10.75;;;1.52;;
41309;SDS011;27057;51.438;-0.010;2023-10-19T02:39:27;8.40;;;1.67;;
41309;SDS011;27057;51.438;-0.010;2023-10-19T02:41:55;4.55;;;1.02;;
41309;SDS011;27057;51.438;-0.010;2023-10-19T02:44:23;11.93;;;1.73;;
41309;SDS011;27057;51.438;-0.010;2023-10-19T02:46:53;12.15;;;1.48;;
41309;SDS011;27057;51.438;-0.010;2023-10-19T02:49:27;8.88;;;1.25;;
41309;SDS011;27057;51.438;-0.010;2023-10-19T02:51:57;10.93;;;1.42;;
41309;SDS011;27057;51.438;-0.010;2023-10-19T02:54:30;13.13;;;1.67;;
41309;SDS011;27057;51.438;-0.010;2023-10-19T02:57:02;9.93;;;1.73;;
41309;SDS011;27057;51.438;-0.010;2023-10-19T02:59:34;13.43;;;2.03;;
41309;SDS011;27057;51.438;-0.010;2023-10-19T03:02:02;10.85;;;1.60;;
41309;SDS011;27057;51.438;-0.010;2023-10-19T03:04:40;16.67;;;2.13;;
41309;SDS011;27057;51.438;-0.010;2023-10-19T03:07:09;14.63;;;2.10;;
41309;SDS011;27057;51.438;-0.010;2023-10-19T03:09:39;9.30;;;1.60;;
41309;SDS011;27057;51.438;-0.010;2023-10-19T03:12:15;18.67;;;2.25;;
41309;SDS011;27057;51.438;-0.010;2023-10-19T03:14:44;25.98;;;2.55;;
41309;SDS011;27057;51.438;-0.010;2023-10-19T03:17:15;23.80;;;2.47;;
41309;SDS011;27057;51.438;-0.010;2023-10-19T03:19:43;24.40;;;4.07;;
41309;SDS011;27057;51.438;-0.010;2023-10-19T03:22:11;26.52;;;2.47;;
41309;SDS011;27057;51.438;-0.010;2023-10-19T03:24:39;32.83;;;2.67;;
41309;SDS011;27057;51.438;-0.010;2023-10-19T03:27:13;18.17;;;2.20;;
41309;SDS011;27057;51.438;-0.010;2023-10-19T03:29:46;14.25;;;2.30;;
41309;SDS011;27057;51.438;-0.010;2023-10-19T03:32:15;31.90;;;3.45;;
41309;SDS011;27057;51.438;-0.010;2023-10-19T03:34:49;26.67;;;3.38;;
41309;SDS011;27057;51.438;-0.010;2023-10-19T03:37:22;28.02;;;3.05;;
41309;SDS011;27057;51.438;-0.010;2023-10-19T03:39:52;23.27;;;4.20;;
41309;SDS011;27057;51.438;-0.010;2023-10-19T03:42:24;25.20;;;2.63;;
41309;SDS011;27057;51.438;-0.010;2023-10-19T03:44:59;29.13;;;3.35;;
41309;SDS011;27057;51.438;-0.010;2023-10-19T03:47:34;26.13;;;2.88;;
41309;SDS011;27057;51.438;-0.010;2023-10-19T03:50:03;31.70;;;3.42;;
41309;SDS011;27057;51.438;-0.010;2023-10-19T03:52:35;5.53;;;1.27;;
41309;SDS011;27057;51.438;-0.010;2023-10-19T03:55:05;44.97;;;4.82;;
41309;SDS011;27057;51.438;-0.010;2023-10-19T03:57:38;31.55;;;3.58;;
41309;SDS011;27057;51.438;-0.010;2023-10-19T04:00:14;24.88;;;3.13;;
41309;SDS011;27057;51.438;-0.010;2023-10-19T04:02:52;32.38;;;4.00;;
41309;SDS011;27057;51.438;-0.010;2023-10-19T04:05:25;29.63;;;5.85;;
41309;SDS011;27057;51.438;-0.010;2023-10-19T04:07:53;25.35;;;3.47;;
41309;SDS011;27057;51.438;-0.010;2023-10-19T04:10:24;34.85;;;3.40;;
41309;SDS011;27057;51.438;-0.010;2023-10-19T04:12:56;25.25;;;3.17;;
41309;SDS011;27057;51.438;-0.010;2023-10-19T04:15:27;30.73;;;4.22;;
41309;SDS011;27057;51.438;-0.010;2023-10-19T04:18:02;29.60;;;3.40;;
41309;SDS011;27057;51.438;-0.010;2023-10-19T04:20:36;22.90;;;3.15;;
41309;SDS011;27057;51.438;-0.010;2023-10-19T04:23:22;21.45;;;3.80;;
41309;SDS011;27057;51.438;-0.010;2023-10-19T04:25:56;24.60;;;3.60;;
41309;SDS011;27057;51.438;-0.010;2023-10-19T04:28:24;35.60;;;4.28;;
41309;SDS011;27057;51.438;-0.010;2023-10-19T04:30:59;26.17;;;3.60;;
41309;SDS011;27057;51.438;-0.010;2023-10-19T04:33:33;30.92;;;3.35;;
41309;SDS011;27057;51.438;-0.010;2023-10-19T04:36:00;33.30;;;3.45;;
41309;SDS011;27057;51.438;-0.010;2023-10-19T04:38:29;40.28;;;5.43;;
41309;SDS011;27057;51.438;-0.010;2023-10-19T04:41:03;34.22;;;4.10;;
41309;SDS011;27057;51.438;-0.010;2023-10-19T04:43:35;18.90;;;3.13;;
41309;SDS011;27057;51.438;-0.010;2023-10-19T04:46:07;19.63;;;2.13;;
41309;SDS011;27057;51.438;-0.010;2023-10-19T04:48:41;27.48;;;3.28;;
41309;SDS011;27057;51.438;-0.010;2023-10-19T04:51:09;20.10;;;2.88;;
41309;SDS011;27057;51.438;-0.010;2023-10-19T04:53:37;17.30;;;2.17;;
41309;SDS011;27057;51.438;-0.010;2023-10-19T04:56:05;13.98;;;2.42;;
41309;SDS011;27057;51.438;-0.010;2023-10-19T04:58:35;21.95;;;2.92;;
41309;SDS011;27057;51.438;-0.010;2023-10-19T05:01:04;19.17;;;2.97;;
41309;SDS011;27057;51.438;-0.010;2023-10-19T05:03:32;17.75;;;3.03;;
41309;SDS011;27057;51.438;-0.010;2023-10-19T05:06:00;31.25;;;4.15;;
41309;SDS011;27057;51.438;-0.010;2023-10-19T05:08:28;31.63;;;4.07;;
41309;SDS011;27057;51.438;-0.010;2023-10-19T05:10:56;26.90;;;3.63;;
41309;SDS011;27057;51.438;-0.010;2023-10-19T05:13:27;17.55;;;2.50;;
41309;SDS011;27057;51.438;-0.010;2023-10-19T05:15:55;23.02;;;3.38;;
41309;SDS011;27057;51.438;-0.010;2023-10-19T05:18:23;30.58;;;3.30;;
41309;SDS011;27057;51.438;-0.010;2023-10-19T05:20:50;26.98;;;2.95;;
41309;SDS011;27057;51.438;-0.010;2023-10-19T05:23:23;31.85;;;3.80;;
41309;SDS011;27057;51.438;-0.010;2023-10-19T05:25:59;22.63;;;3.10;;
41309;SDS011;27057;51.438;-0.010;2023-10-19T05:28:27;32.80;;;3.92;;
41309;SDS011;27057;51.438;-0.010;2023-10-19T05:30:55;24.63;;;3.13;;
41309;SDS011;27057;51.438;-0.010;2023-10-19T05:33:22;31.70;;;4.35;;
41309;SDS011;27057;51.438;-0.010;2023-10-19T05:35:50;31.30;;;3.80;;
41309;SDS011;27057;51.438;-0.010;2023-10-19T05:38:18;36.30;;;3.90;;
41309;SDS011;27057;51.438;-0.010;2023-10-19T05:40:51;36.95;;;3.80;;
41309;SDS011;27057;51.438;-0.010;2023-10-19T05:43:19;30.33;;;5.60;;
41309;SDS011;27057;51.438;-0.010;2023-10-19T05:45:46;34.35;;;3.83;;
41309;SDS011;27057;51.438;-0.010;2023-10-19T05:48:17;13.65;;;1.80;;
41309;SDS011;27057;51.438;-0.010;2023-10-19T05:50:44;38.28;;;4.75;;
41309;SDS011;27057;51.438;-0.010;2023-10-19T05:53:11;34.50;;;3.97;;
41309;SDS011;27057;51.438;-0.010;2023-10-19T05:55:40;26.17;;;3.17;;
41309;SDS011;27057;51.438;-0.010;2023-10-19T05:58:08;31.20;;;3.10;;
41309;SDS011;27057;51.438;-0.010;2023-10-19T06:00:35;33.63;;;3.67;;
41309;SDS011;27057;51.438;-0.010;2023-10-19T06:03:03;22.02;;;3.95;;
41309;SDS011;27057;51.438;-0.010;2023-10-19T06:05:31;26.92;;;3.72;;
41309;SDS011;27057;51.438;-0.010;2023-10-19T06:07:59;22.83;;;3.38;;
41309;SDS011;27057;51.438;-0.010;2023-10-19T06:10:27;27.30;;;3.65;;
41309;SDS011;27057;51.438;-0.010;2023-10-19T06:12:55;21.45;;;3.03;;
41309;SDS011;27057;51.438;-0.010;2023-10-19T06:15:24;33.17;;;4.15;;
41309;SDS011;27057;51.438;-0.010;2023-10-19T06:17:51;32.58;;;4.07;;
41309;SDS011;27057;51.438;-0.010;2023-10-19T06:20:19;28.33;;;3.42;;
41309;SDS011;27057;51.438;-0.010;2023-10-19T06:22:51;26.45;;;3.15;;
41309;SDS011;27057;51.438;-0.010;2023-10-19T06:25:23;33.60;;;3.75;;
41309;SDS011;27057;51.438;-0.010;2023-10-19T06:27:52;30.80;;;3.88;;
41309;SDS011;27057;51.438;-0.010;2023-10-19T06:30:20;21.85;;;3.10;;
41309;SDS011;27057;51.438;-0.010;2023-10-19T06:32:50;35.22;;;4.50;;
41309;SDS011;27057;51.438;-0.010;2023-10-19T06:35:20;29.25;;;4.07;;
41309;SDS011;27057;51.438;-0.010;2023-10-19T06:37:48;26.38;;;3.65;;
41309;SDS011;27057;51.438;-0.010;2023-10-19T06:40:16;30.38;;;4.13;;
41309;SDS011;27057;51.438;-0.010;2023-10-19T06:42:44;31.95;;;6.28;;
41309;SDS011;27057;51.438;-0.010;2023-10-19T06:45:12;32.25;;;4.95;;
41309;SDS011;27057;51.438;-0.010;2023-10-19T06:47:44;37.63;;;5.88;;
41309;SDS011;27057;51.438;-0.010;2023-10-19T06:50:14;38.53;;;5.10;;
41309;SDS011;27057;51.438;-0.010;2023-10-19T06:52:46;33.83;;;4.35;;
41309;SDS011;27057;51.438;-0.010;2023-10-19T06:55:17;36.20;;;4.50;;
41309;SDS011;27057;51.438;-0.010;2023-10-19T06:57:50;21.20;;;3.72;;
41309;SDS011;27057;51.438;-0.010;2023-10-19T07:00:20;33.53;;;5.07;;
41309;SDS011;27057;51.438;-0.010;2023-10-19T07:02:55;35.17;;;5.00;;
41309;SDS011;27057;51.438;-0.010;2023-10-19T07:05:24;23.85;;;3.17;;
41309;SDS011;27057;51.438;-0.010;2023-10-19T07:07:52;32.78;;;3.30;;
41309;SDS011;27057;51.438;-0.010;2023-10-19T07:10:22;21.95;;;3.72;;
41309;SDS011;27057;51.438;-0.010;2023-10-19T07:12:54;30.77;;;3.35;;
41309;SDS011;27057;51.438;-0.010;2023-10-19T07:15:22;30.90;;;4.40;;
41309;SDS011;27057;51.438;-0.010;2023-10-19T07:17:52;30.65;;;3.92;;
41309;SDS011;27057;51.438;-0.010;2023-10-19T07:20:22;26.17;;;4.07;;
41309;SDS011;27057;51.438;-0.010;2023-10-19T07:22:53;30.55;;;3.53;;
41309;SDS011;27057;51.438;-0.010;2023-10-19T07:25:45;35.50;;;3.90;;
41309;SDS011;27057;51.438;-0.010;2023-10-19T07:28:22;29.52;;;3.42;;
41309;SDS011;27057;51.438;-0.010;2023-10-19T07:30:53;27.02;;;3.45;;
41309;SDS011;27057;51.438;-0.010;2023-10-19T07:33:20;27.10;;;3.40;;
41309;SDS011;27057;51.438;-0.010;2023-10-19T07:35:49;25.05;;;3.85;;
41309;SDS011;27057;51.438;-0.010;2023-10-19T07:38:26;23.90;;;3.05;;
41309;SDS011;27057;51.438;-0.010;2023-10-19T07:40:55;17.27;;;2.38;;
41309;SDS011;27057;51.438;-0.010;2023-10-19T07:43:23;22.88;;;2.78;;
41309;SDS011;27057;51.438;-0.010;2023-10-19T07:45:52;24.30;;;3.10;;
41309;SDS011;27057;51.438;-0.010;2023-10-19T07:48:20;11.77;;;2.60;;
41309;SDS011;27057;51.438;-0.010;2023-10-19T07:50:47;18.33;;;3.28;;
41309;SDS011;27057;51.438;-0.010;2023-10-19T07:53:15;11.10;;;2.50;;
41309;SDS011;27057;51.438;-0.010;2023-10-19T07:55:43;18.02;;;2.80;;
41309;SDS011;27057;51.438;-0.010;2023-10-19T07:58:11;19.13;;;2.95;;
41309;SDS011;27057;51.438;-0.010;2023-10-19T08:00:38;18.15;;;3.10;;
41309;SDS011;27057;51.438;-0.010;2023-10-19T08:03:09;14.38;;;2.45;;
41309;SDS011;27057;51.438;-0.010;2023-10-19T08:05:40;18.55;;;2.75;;
41309;SDS011;27057;51.438;-0.010;2023-10-19T08:08:07;16.92;;;2.70;;
41309;SDS011;27057;51.438;-0.010;2023-10-19T08:10:35;19.73;;;3.28;;
41309;SDS011;27057;51.438;-0.010;2023-10-19T08:13:03;19.70;;;2.90;;
41309;SDS011;27057;51.438;-0.010;2023-10-19T08:15:31;18.15;;;3.40;;
41309;SDS011;27057;51.438;-0.010;2023-10-19T08:17:59;18.60;;;2.65;;
41309;SDS011;27057;51.438;-0.010;2023-10-19T08:20:26;26.02;;;4.15;;
41309;SDS011;27057;51.438;-0.010;2023-10-19T08:23:03;23.98;;;2.72;;
41309;SDS011;27057;51.438;-0.010;2023-10-19T08:25:32;18.05;;;2.53;;
41309;SDS011;27057;51.438;-0.010;2023-10-19T08:28:20;22.35;;;3.08;;
41309;SDS011;27057;51.438;-0.010;2023-10-19T08:30:49;28.42;;;3.35;;
41309;SDS011;27057;51.438;-0.010;2023-10-19T08:33:29;21.95;;;2.80;;
41309;SDS011;27057;51.438;-0.010;2023-10-19T08:35:57;20.98;;;3.22;;
41309;SDS011;27057;51.438;-0.010;2023-10-19T08:38:24;26.08;;;2.85;;
41309;SDS011;27057;51.438;-0.010;2023-10-19T08:40:52;25.83;;;3.78;;
41309;SDS011;27057;51.438;-0.010;2023-10-19T08:43:21;25.80;;;2.88;;
41309;SDS011;27057;51.438;-0.010;2023-10-19T08:45:48;21.17;;;3.10;;
41309;SDS011;27057;51.438;-0.010;2023-10-19T08:48:16;24.08;;;3.83;;
41309;SDS011;27057;51.438;-0.010;2023-10-19T08:50:44;28.58;;;3.50;;
41309;SDS011;27057;51.438;-0.010;2023-10-19T08:53:13;23.05;;;4.63;;
41309;SDS011;27057;51.438;-0.010;2023-10-19T08:55:41;45.63;;;5.65;;
41309;SDS011;27057;51.438;-0.010;2023-10-19T08:58:16;30.15;;;5.22;;
41309;SDS011;27057;51.438;-0.010;2023-10-19T09:00:49;35.53;;;3.70;;
41309;SDS011;27057;51.438;-0.010;2023-10-19T09:03:24;32.40;;;3.33;;
41309;SDS011;27057;51.438;-0.010;2023-10-19T09:05:53;24.83;;;3.38;;
41309;SDS011;27057;51.438;-0.010;2023-10-19T09:08:21;24.75;;;2.97;;
41309;SDS011;27057;51.438;-0.010;2023-10-19T09:10:50;20.08;;;3.60;;
41309;SDS011;27057;51.438;-0.010;2023-10-19T09:13:20;31.35;;;4.10;;
41309;SDS011;27057;51.438;-0.010;2023-10-19T09:15:50;22.75;;;4.22;;
41309;SDS011;27057;51.438;-0.010;2023-10-19T09:18:22;28.02;;;4.47;;
41309;SDS011;27057;51.438;-0.010;2023-10-19T09:20:52;23.08;;;3.35;;
41309;SDS011;27057;51.438;-0.010;2023-10-19T09:23:24;24.60;;;5.05;;
41309;SDS011;27057;51.438;-0.010;2023-10-19T09:25:56;28.73;;;4.57;;
41309;SDS011;27057;51.438;-0.010;2023-10-19T09:28:25;30.83;;;3.90;;
41309;SDS011;27057;51.438;-0.010;2023-10-19T09:30:52;26.83;;;3.33;;
41309;SDS011;27057;51.438;-0.010;2023-10-19T09:33:22;29.15;;;3.67;;
41309;SDS011;27057;51.438;-0.010;2023-10-19T09:35:51;32.28;;;3.35;;
41309;SDS011;27057;51.438;-0.010;2023-10-19T09:38:23;18.90;;;3.50;;
41309;SDS011;27057;51.438;-0.010;2023-10-19T09:40:52;19.42;;;3.08;;
41309;SDS011;27057;51.438;-0.010;2023-10-19T09:43:33;24.33;;;3.35;;
41309;SDS011;27057;51.438;-0.010;2023-10-19T09:46:06;25.23;;;3.45;;
41309;SDS011;27057;51.438;-0.010;2023-10-19T09:48:39;17.60;;;3.28;;
41309;SDS011;27057;51.438;-0.010;2023-10-19T09:51:15;29.55;;;3.00;;
41309;SDS011;27057;51.438;-0.010;2023-10-19T09:53:45;12.98;;;2.65;;
41309;SDS011;27057;51.438;-0.010;2023-10-19T09:56:17;28.48;;;4.50;;
41309;SDS011;27057;51.438;-0.010;2023-10-19T09:58:52;18.95;;;3.10;;
41309;SDS011;27057;51.438;-0.010;2023-10-19T10:01:22;27.00;;;4.30;;
41309;SDS011;27057;51.438;-0.010;2023-10-19T10:06:29;28.80;;;3.80;;
41309;SDS011;27057;51.438;-0.010;2023-10-19T10:09:00;32.35;;;4.90;;
41309;SDS011;27057;51.438;-0.010;2023-10-19T10:11:27;20.02;;;2.83;;
41309;SDS011;27057;51.438;-0.010;2023-10-19T10:13:56;19.98;;;3.85;;
41309;SDS011;27057;51.438;-0.010;2023-10-19T10:16:25;29.70;;;6.88;;
41309;SDS011;27057;51.438;-0.010;2023-10-19T10:18:54;26.58;;;4.97;;
41309;SDS011;27057;51.438;-0.010;2023-10-19T10:21:26;18.35;;;3.10;;
41309;SDS011;27057;51.438;-0.010;2023-10-19T10:23:57;30.10;;;3.83;;
41309;SDS011;27057;51.438;-0.010;2023-10-19T10:26:29;30.42;;;4.18;;
41309;SDS011;27057;51.438;-0.010;2023-10-19T10:29:13;19.45;;;2.97;;
41309;SDS011;27057;51.438;-0.010;2023-10-19T10:31:54;25.85;;;2.95;;
41309;SDS011;27057;51.438;-0.010;2023-10-19T10:37:05;34.33;;;3.33;;
41309;SDS011;27057;51.438;-0.010;2023-10-19T10:39:38;16.85;;;2.80;;
41309;SDS011;27057;51.438;-0.010;2023-10-19T10:42:08;22.73;;;3.70;;
41309;SDS011;27057;51.438;-0.010;2023-10-19T10:44:43;33.13;;;3.13;;
41309;SDS011;27057;51.438;-0.010;2023-10-19T10:47:15;22.15;;;2.58;;
41309;SDS011;27057;51.438;-0.010;2023-10-19T10:52:23;16.35;;;2.63;;
41309;SDS011;27057;51.438;-0.010;2023-10-19T10:55:05;18.02;;;2.78;;
41309;SDS011;27057;51.438;-0.010;2023-10-19T10:57:34;21.20;;;2.95;;
41309;SDS011;27057;51.438;-0.010;2023-10-19T11:00:08;25.58;;;4.80;;
41309;SDS011;27057;51.438;-0.010;2023-10-19T11:02:42;19.15;;;3.53;;
41309;SDS011;27057;51.438;-0.010;2023-10-19T11:05:13;24.98;;;2.80;;
41309;SDS011;27057;51.438;-0.010;2023-10-19T11:08:03;15.98;;;2.50;;
41309;SDS011;27057;51.438;-0.010;2023-10-19T11:10:43;15.00;;;3.35;;
41309;SDS011;27057;51.438;-0.010;2023-10-19T11:13:14;12.38;;;2.75;;
41309;SDS011;27057;51.438;-0.010;2023-10-19T11:15:53;19.88;;;2.85;;
41309;SDS011;27057;51.438;-0.010;2023-10-19T11:18:35;25.08;;;3.42;;
41309;SDS011;27057;51.438;-0.010;2023-10-19T11:21:07;21.50;;;2.47;;
41309;SDS011;27057;51.438;-0.010;2023-10-19T11:23:40;20.10;;;3.40;;
41309;SDS011;27057;51.438;-0.010;2023-10-19T11:26:08;15.18;;;3.10;;
41309;SDS011;27057;51.438;-0.010;2023-10-19T11:28:38;17.80;;;3.10;;
41309;SDS011;27057;51.438;-0.010;2023-10-19T11:31:13;42.45;;;4.60;;
41309;SDS011;27057;51.438;-0.010;2023-10-19T11:33:45;22.77;;;3.33;;
41309;SDS011;27057;51.438;-0.010;2023-10-19T11:36:17;26.90;;;3.45;;
41309;SDS011;27057;51.438;-0.010;2023-10-19T11:38:46;18.60;;;2.63;;
41309;SDS011;27057;51.438;-0.010;2023-10-19T11:41:15;17.10;;;2.78;;
41309;SDS011;27057;51.438;-0.010;2023-10-19T11:43:44;23.58;;;2.58;;
41309;SDS011;27057;51.438;-0.010;2023-10-19T11:46:13;23.27;;;3.42;;
41309;SDS011;27057;51.438;-0.010;2023-10-19T11:48:49;18.75;;;2.78;;
41309;SDS011;27057;51.438;-0.010;2023-10-19T11:51:17;35.92;;;3.08;;
41309;SDS011;27057;51.438;-0.010;2023-10-19T11:53:44;21.20;;;3.25;;
41309;SDS011;27057;51.438;-0.010;2023-10-19T11:56:12;18.50;;;4.25;;
41309;SDS011;27057;51.438;-0.010;2023-10-19T11:58:40;23.52;;;3.70;;
41309;SDS011;27057;51.438;-0.010;2023-10-19T12:01:10;20.77;;;3.17;;
41309;SDS011;27057;51.438;-0.010;2023-10-19T12:03:40;20.38;;;3.35;;
41309;SDS011;27057;51.438;-0.010;2023-10-19T12:06:09;21.80;;;2.78;;
41309;SDS011;27057;51.438;-0.010;2023-10-19T12:08:38;20.92;;;3.70;;
41309;SDS011;27057;51.438;-0.010;2023-10-19T12:11:07;40.40;;;3.85;;
41309;SDS011;27057;51.438;-0.010;2023-10-19T12:13:45;24.55;;;3.95;;
41309;SDS011;27057;51.438;-0.010;2023-10-19T12:16:14;23.27;;;3.38;;
41309;SDS011;27057;51.438;-0.010;2023-10-19T12:18:43;28.50;;;4.53;;
41309;SDS011;27057;51.438;-0.010;2023-10-19T12:21:12;29.42;;;4.18;;
41309;SDS011;27057;51.438;-0.010;2023-10-19T12:23:42;24.10;;;3.60;;
41309;SDS011;27057;51.438;-0.010;2023-10-19T12:26:11;17.92;;;4.00;;
41309;SDS011;27057;51.438;-0.010;2023-10-19T12:28:39;27.70;;;4.28;;
41309;SDS011;27057;51.438;-0.010;2023-10-19T12:31:08;28.17;;;4.28;;
41309;SDS011;27057;51.438;-0.010;2023-10-19T12:33:38;38.10;;;4.57;;
41309;SDS011;27057;51.438;-0.010;2023-10-19T12:36:06;31.52;;;4.70;;
41309;SDS011;27057;51.438;-0.010;2023-10-19T12:38:58;30.77;;;4.05;;
41309;SDS011;27057;51.438;-0.010;2023-10-19T12:41:27;21.77;;;4.00;;
41309;SDS011;27057;51.438;-0.010;2023-10-19T12:43:55;26.60;;;4.18;;
41309;SDS011;27057;51.438;-0.010;2023-10-19T12:46:29;28.42;;;3.80;;
41309;SDS011;27057;51.438;-0.010;2023-10-19T12:48:57;22.35;;;2.55;;
41309;SDS011;27057;51.438;-0.010;2023-10-19T12:51:25;19.25;;;2.85;;
41309;SDS011;27057;51.438;-0.010;2023-10-19T12:53:52;30.27;;;3.58;;
41309;SDS011;27057;51.438;-0.010;2023-10-19T12:56:21;24.27;;;3.58;;
41309;SDS011;27057;51.438;-0.010;2023-10-19T12:58:51;20.13;;;2.65;;
41309;SDS011;27057;51.438;-0.010;2023-10-19T13:01:19;25.98;;;3.47;;
41309;SDS011;27057;51.438;-0.010;2023-10-19T13:03:46;23.63;;;3.95;;
41309;SDS011;27057;51.438;-0.010;2023-10-19T13:06:18;27.05;;;5.40;;
41309;SDS011;27057;51.438;-0.010;2023-10-19T13:08:46;27.42;;;4.50;;
41309;SDS011;27057;51.438;-0.010;2023-10-19T13:11:14;26.33;;;4.97;;
41309;SDS011;27057;51.438;-0.010;2023-10-19T13:13:44;12.82;;;2.28;;
41309;SDS011;27057;51.438;-0.010;2023-10-19T13:16:13;18.98;;;3.10;;
41309;SDS011;27057;51.438;-0.010;2023-10-19T13:18:41;23.67;;;2.72;;
41309;SDS011;27057;51.438;-0.010;2023-10-19T13:21:08;20.30;;;3.20;;
41309;SDS011;27057;51.438;-0.010;2023-10-19T13:23:38;12.80;;;2.78;;
41309;SDS011;27057;51.438;-0.010;2023-10-19T13:26:06;6.95;;;1.60;;
41309;SDS011;27057;51.438;-0.010;2023-10-19T13:28:34;15.50;;;2.58;;
41309;SDS011;27057;51.438;-0.010;2023-10-19T13:31:04;9.98;;;2.10;;
41309;SDS011;27057;51.438;-0.010;2023-10-19T13:33:36;7.05;;;1.67;;
41309;SDS011;27057;51.438;-0.010;2023-10-19T13:36:03;9.93;;;2.20;;
41309;SDS011;27057;51.438;-0.010;2023-10-19T13:38:33;7.72;;;1.45;;
41309;SDS011;27057;51.438;-0.010;2023-10-19T13:41:03;16.48;;;2.97;;
41309;SDS011;27057;51.438;-0.010;2023-10-19T13:43:34;8.68;;;1.77;;
41309;SDS011;27057;51.438;-0.010;2023-10-19T13:46:05;10.15;;;2.13;;
41309;SDS011;27057;51.438;-0.010;2023-10-19T13:48:32;12.38;;;1.85;;
41309;SDS011;27057;51.438;-0.010;2023-10-19T13:51:00;13.35;;;1.42;;
41309;SDS011;27057;51.438;-0.010;2023-10-19T13:53:32;11.07;;;1.90;;
41309;SDS011;27057;51.438;-0.010;2023-10-19T13:55:59;6.75;;;1.60;;
41309;SDS011;27057;51.438;-0.010;2023-10-19T13:58:27;12.15;;;2.10;;
41309;SDS011;27057;51.438;-0.010;2023-10-19T14:00:54;11.07;;;2.15;;
41309;SDS011;27057;51.438;-0.010;2023-10-19T14:03:21;10.32;;;2.33;;
41309;SDS011;27057;51.438;-0.010;2023-10-19T14:05:49;12.27;;;2.80;;
41309;SDS011;27057;51.438;-0.010;2023-10-19T14:08:17;14.38;;;2.75;;
41309;SDS011;27057;51.438;-0.010;2023-10-19T14:10:45;14.05;;;2.67;;
41309;SDS011;27057;51.438;-0.010;2023-10-19T14:13:14;6.35;;;1.73;;
41309;SDS011;27057;51.438;-0.010;2023-10-19T14:15:41;8.15;;;1.70;;
41309;SDS011;27057;51.438;-0.010;2023-10-19T14:18:09;17.50;;;2.92;;
41309;SDS011;27057;51.438;-0.010;2023-10-19T14:20:38;14.68;;;2.45;;
41309;SDS011;27057;51.438;-0.010;2023-10-19T14:23:07;11.57;;;1.85;;
41309;SDS011;27057;51.438;-0.010;2023-10-19T14:25:36;14.57;;;1.77;;
41309;SDS011;27057;51.438;-0.010;2023-10-19T14:28:06;17.08;;;3.47;;
41309;SDS011;27057;51.438;-0.010;2023-10-19T14:30:34;8.93;;;2.40;;
41309;SDS011;27057;51.438;-0.010;2023-10-19T14:33:01;15.77;;;2.10;;
41309;SDS011;27057;51.438;-0.010;2023-10-19T14:35:29;21.10;;;2.67;;
41309;SDS011;27057;51.438;-0.010;2023-10-19T14:37:56;14.90;;;2.60;;
41309;SDS011;27057;51.438;-0.010;2023-10-19T14:40:27;17.08;;;3.10;;
41309;SDS011;27057;51.438;-0.010;2023-10-19T14:42:55;17.23;;;2.50;;
41309;SDS011;27057;51.438;-0.010;2023-10-19T14:45:25;13.77;;;2.25;;
41309;SDS011;27057;51.438;-0.010;2023-10-19T14:47:53;11.57;;;2.50;;
41309;SDS011;27057;51.438;-0.010;2023-10-19T14:50:22;16.52;;;2.50;;
41309;SDS011;27057;51.438;-0.010;2023-10-19T14:52:51;20.08;;;2.63;;
41309;SDS011;27057;51.438;-0.010;2023-10-19T14:55:19;14.68;;;2.60;;